sensor_id;sensor_type;location;lat;lon;timestamp;P1;durP1;ratioP1;P2;durP2;ratioP2
39486;SDS011;25173;50.430;18.926;2022-10-31T00:00:18;43.70;;;23.50;;
39486;SDS011;25173;50.430;18.926;2022-10-31T00:03:20;38.03;;;21.98;;
39486;SDS011;25173;50.430;18.926;2022-10-31T00:06:21;35.53;;;23.05;;
39486;SDS011;25173;50.430;18.926;2022-10-31T00:09:22;34.67;;;21.55;;
39486;SDS011;25173;50.430;18.926;2022-10-31T00:12:23;35.55;;;21.20;;
39486;SDS011;25173;50.430;18.926;2022-10-31T00:15:23;38.83;;;21.88;;
39486;SDS011;25173;50.430;18.926;2022-10-31T00:18:24;36.47;;;22.25;;
39486;SDS011;25173;50.430;18.926;2022-10-31T00:21:25;37.38;;;22.10;;
39486;SDS011;25173;50.430;18.926;2022-10-31T00:24:26;32.85;;;21.08;;
39486;SDS011;25173;50.430;18.926;2022-10-31T00:27:26;32.05;;;20.80;;
39486;SDS011;25173;50.430;18.926;2022-10-31T00:30:28;39.97;;;22.98;;
39486;SDS011;25173;50.430;18.926;2022-10-31T00:33:29;35.00;;;21.98;;
39486;SDS011;25173;50.430;18.926;2022-10-31T00:36:30;43.63;;;22.60;;
39486;SDS011;25173;50.430;18.926;2022-10-31T00:39:30;37.15;;;22.80;;
39486;SDS011;25173;50.430;18.926;2022-10-31T00:42:31;38.85;;;23.77;;
39486;SDS011;25173;50.430;18.926;2022-10-31T00:45:32;38.72;;;22.67;;
39486;SDS011;25173;50.430;18.926;2022-10-31T00:48:33;35.13;;;21.80;;
39486;SDS011;25173;50.430;18.926;2022-10-31T00:51:33;40.58;;;24.90;;
39486;SDS011;25173;50.430;18.926;2022-10-31T00:54:34;43.03;;;26.60;;
39486;SDS011;25173;50.430;18.926;2022-10-31T00:57:35;41.58;;;27.13;;
39486;SDS011;25173;50.430;18.926;2022-10-31T01:00:38;46.47;;;28.05;;
39486;SDS011;25173;50.430;18.926;2022-10-31T01:03:39;51.45;;;29.33;;
39486;SDS011;25173;50.430;18.926;2022-10-31T01:06:44;48.15;;;30.88;;
39486;SDS011;25173;50.430;18.926;2022-10-31T01:09:45;50.83;;;31.42;;
39486;SDS011;25173;50.430;18.926;2022-10-31T01:12:47;53.85;;;31.40;;
39486;SDS011;25173;50.430;18.926;2022-10-31T01:15:53;48.83;;;30.25;;
39486;SDS011;25173;50.430;18.926;2022-10-31T01:18:54;53.08;;;30.88;;
39486;SDS011;25173;50.430;18.926;2022-10-31T01:21:55;54.38;;;31.35;;
39486;SDS011;25173;50.430;18.926;2022-10-31T01:24:56;47.95;;;26.63;;
39486;SDS011;25173;50.430;18.926;2022-10-31T01:27:57;40.50;;;25.27;;
39486;SDS011;25173;50.430;18.926;2022-10-31T01:31:01;40.78;;;23.98;;
39486;SDS011;25173;50.430;18.926;2022-10-31T01:34:05;48.50;;;23.27;;
39486;SDS011;25173;50.430;18.926;2022-10-31T01:37:07;41.45;;;23.73;;
39486;SDS011;25173;50.430;18.926;2022-10-31T01:40:08;32.13;;;21.25;;
39486;SDS011;25173;50.430;18.926;2022-10-31T01:43:11;51.83;;;23.80;;
39486;SDS011;25173;50.430;18.926;2022-10-31T01:46:13;40.33;;;22.02;;
39486;SDS011;25173;50.430;18.926;2022-10-31T01:52:40;33.40;;;22.15;;
39486;SDS011;25173;50.430;18.926;2022-10-31T01:55:44;32.30;;;18.42;;
39486;SDS011;25173;50.430;18.926;2022-10-31T01:58:50;29.88;;;17.40;;
39486;SDS011;25173;50.430;18.926;2022-10-31T02:01:52;30.10;;;16.73;;
39486;SDS011;25173;50.430;18.926;2022-10-31T02:04:52;29.13;;;16.42;;
39486;SDS011;25173;50.430;18.926;2022-10-31T02:07:55;32.08;;;18.48;;
39486;SDS011;25173;50.430;18.926;2022-10-31T02:11:03;29.60;;;18.38;;
39486;SDS011;25173;50.430;18.926;2022-10-31T02:14:04;31.92;;;18.58;;
39486;SDS011;25173;50.430;18.926;2022-10-31T02:17:05;30.20;;;18.23;;
39486;SDS011;25173;50.430;18.926;2022-10-31T02:20:24;28.60;;;18.42;;
39486;SDS011;25173;50.430;18.926;2022-10-31T02:27:22;29.60;;;19.13;;
39486;SDS011;25173;50.430;18.926;2022-10-31T02:30:40;33.33;;;18.83;;
39486;SDS011;25173;50.430;18.926;2022-10-31T02:33:50;38.28;;;25.85;;
39486;SDS011;25173;50.430;18.926;2022-10-31T02:36:59;37.08;;;25.85;;
39486;SDS011;25173;50.430;18.926;2022-10-31T02:40:10;32.38;;;24.13;;
39486;SDS011;25173;50.430;18.926;2022-10-31T02:47:08;28.15;;;18.48;;
39486;SDS011;25173;50.430;18.926;2022-10-31T02:50:16;29.10;;;17.75;;
39486;SDS011;25173;50.430;18.926;2022-10-31T02:53:22;26.02;;;16.90;;
39486;SDS011;25173;50.430;18.926;2022-10-31T02:56:23;26.58;;;17.58;;
39486;SDS011;25173;50.430;18.926;2022-10-31T02:59:23;32.30;;;16.67;;
39486;SDS011;25173;50.430;18.926;2022-10-31T03:02:28;28.85;;;18.48;;
39486;SDS011;25173;50.430;18.926;2022-10-31T03:05:58;28.50;;;16.15;;
39486;SDS011;25173;50.430;18.926;2022-10-31T03:09:15;31.25;;;16.98;;
39486;SDS011;25173;50.430;18.926;2022-10-31T03:15:42;35.72;;;20.77;;
39486;SDS011;25173;50.430;18.926;2022-10-31T03:18:52;35.90;;;23.80;;
39486;SDS011;25173;50.430;18.926;2022-10-31T03:22:02;37.38;;;19.60;;
39486;SDS011;25173;50.430;18.926;2022-10-31T03:25:07;46.38;;;28.95;;
39486;SDS011;25173;50.430;18.926;2022-10-31T03:28:10;212.57;;;108.07;;
39486;SDS011;25173;50.430;18.926;2022-10-31T03:31:15;207.80;;;109.67;;
39486;SDS011;25173;50.430;18.926;2022-10-31T03:34:19;162.85;;;90.75;;
39486;SDS011;25173;50.430;18.926;2022-10-31T03:37:21;101.40;;;56.28;;
39486;SDS011;25173;50.430;18.926;2022-10-31T03:40:27;117.35;;;59.85;;
39486;SDS011;25173;50.430;18.926;2022-10-31T03:43:30;75.05;;;40.75;;
39486;SDS011;25173;50.430;18.926;2022-10-31T03:46:37;79.47;;;45.17;;
39486;SDS011;25173;50.430;18.926;2022-10-31T03:49:38;87.70;;;45.53;;
39486;SDS011;25173;50.430;18.926;2022-10-31T03:52:47;81.93;;;43.30;;
39486;SDS011;25173;50.430;18.926;2022-10-31T03:56:09;47.38;;;30.17;;
39486;SDS011;25173;50.430;18.926;2022-10-31T03:59:19;55.55;;;31.67;;
39486;SDS011;25173;50.430;18.926;2022-10-31T04:02:26;58.75;;;32.55;;
39486;SDS011;25173;50.430;18.926;2022-10-31T04:08:36;42.78;;;24.90;;
39486;SDS011;25173;50.430;18.926;2022-10-31T04:11:46;49.90;;;31.58;;
39486;SDS011;25173;50.430;18.926;2022-10-31T04:15:11;48.85;;;27.73;;
39486;SDS011;25173;50.430;18.926;2022-10-31T04:18:14;31.48;;;20.27;;
39486;SDS011;25173;50.430;18.926;2022-10-31T04:21:15;51.75;;;27.55;;
39486;SDS011;25173;50.430;18.926;2022-10-31T04:24:16;46.03;;;28.65;;
39486;SDS011;25173;50.430;18.926;2022-10-31T04:27:17;40.05;;;23.83;;
39486;SDS011;25173;50.430;18.926;2022-10-31T04:30:18;32.92;;;21.83;;
39486;SDS011;25173;50.430;18.926;2022-10-31T04:33:18;38.70;;;23.50;;
39486;SDS011;25173;50.430;18.926;2022-10-31T04:36:20;29.23;;;16.33;;
39486;SDS011;25173;50.430;18.926;2022-10-31T04:39:21;20.15;;;13.48;;
39486;SDS011;25173;50.430;18.926;2022-10-31T04:42:34;23.27;;;14.52;;
39486;SDS011;25173;50.430;18.926;2022-10-31T04:45:37;32.70;;;16.45;;
39486;SDS011;25173;50.430;18.926;2022-10-31T04:48:38;31.52;;;17.70;;
39486;SDS011;25173;50.430;18.926;2022-10-31T04:51:40;26.70;;;17.50;;
39486;SDS011;25173;50.430;18.926;2022-10-31T04:54:42;28.35;;;16.48;;
39486;SDS011;25173;50.430;18.926;2022-10-31T04:58:12;29.35;;;17.73;;
39486;SDS011;25173;50.430;18.926;2022-10-31T05:01:12;38.40;;;19.80;;
39486;SDS011;25173;50.430;18.926;2022-10-31T05:04:14;42.00;;;23.17;;
39486;SDS011;25173;50.430;18.926;2022-10-31T05:07:15;36.95;;;21.25;;
39486;SDS011;25173;50.430;18.926;2022-10-31T05:10:19;34.72;;;20.45;;
39486;SDS011;25173;50.430;18.926;2022-10-31T05:13:23;35.70;;;20.17;;
39486;SDS011;25173;50.430;18.926;2022-10-31T05:16:52;34.83;;;20.38;;
39486;SDS011;25173;50.430;18.926;2022-10-31T05:20:14;40.03;;;22.45;;
39486;SDS011;25173;50.430;18.926;2022-10-31T05:23:18;36.08;;;23.48;;
39486;SDS011;25173;50.430;18.926;2022-10-31T05:26:20;42.25;;;24.48;;
39486;SDS011;25173;50.430;18.926;2022-10-31T05:29:21;40.42;;;22.63;;
39486;SDS011;25173;50.430;18.926;2022-10-31T05:32:22;39.92;;;23.77;;
39486;SDS011;25173;50.430;18.926;2022-10-31T05:36:01;40.45;;;22.67;;
39486;SDS011;25173;50.430;18.926;2022-10-31T05:39:08;41.15;;;22.58;;
39486;SDS011;25173;50.430;18.926;2022-10-31T05:42:13;42.28;;;25.42;;
39486;SDS011;25173;50.430;18.926;2022-10-31T05:45:15;43.60;;;25.83;;
39486;SDS011;25173;50.430;18.926;2022-10-31T05:48:26;44.33;;;23.50;;
39486;SDS011;25173;50.430;18.926;2022-10-31T05:51:45;43.65;;;23.48;;
39486;SDS011;25173;50.430;18.926;2022-10-31T05:54:45;46.60;;;26.52;;
39486;SDS011;25173;50.430;18.926;2022-10-31T05:57:46;37.80;;;21.95;;
39486;SDS011;25173;50.430;18.926;2022-10-31T06:00:47;37.25;;;23.70;;
39486;SDS011;25173;50.430;18.926;2022-10-31T06:03:50;40.05;;;23.20;;
39486;SDS011;25173;50.430;18.926;2022-10-31T06:06:50;34.03;;;21.60;;
39486;SDS011;25173;50.430;18.926;2022-10-31T06:09:51;36.20;;;21.10;;
39486;SDS011;25173;50.430;18.926;2022-10-31T06:12:54;29.10;;;18.60;;
39486;SDS011;25173;50.430;18.926;2022-10-31T06:16:03;29.73;;;17.52;;
39486;SDS011;25173;50.430;18.926;2022-10-31T06:19:09;25.92;;;18.38;;
39486;SDS011;25173;50.430;18.926;2022-10-31T06:22:10;36.92;;;19.05;;
39486;SDS011;25173;50.430;18.926;2022-10-31T06:25:13;32.47;;;18.50;;
39486;SDS011;25173;50.430;18.926;2022-10-31T06:31:26;39.72;;;20.88;;
39486;SDS011;25173;50.430;18.926;2022-10-31T06:34:26;44.25;;;24.77;;
39486;SDS011;25173;50.430;18.926;2022-10-31T06:37:27;64.72;;;30.85;;
39486;SDS011;25173;50.430;18.926;2022-10-31T06:40:37;60.88;;;35.45;;
39486;SDS011;25173;50.430;18.926;2022-10-31T06:43:50;60.70;;;36.25;;
39486;SDS011;25173;50.430;18.926;2022-10-31T06:47:09;56.70;;;33.22;;
39486;SDS011;25173;50.430;18.926;2022-10-31T06:50:29;52.13;;;32.40;;
39486;SDS011;25173;50.430;18.926;2022-10-31T06:53:30;50.20;;;31.33;;
39486;SDS011;25173;50.430;18.926;2022-10-31T06:56:31;54.53;;;31.77;;
39486;SDS011;25173;50.430;18.926;2022-10-31T06:59:33;47.72;;;31.70;;
39486;SDS011;25173;50.430;18.926;2022-10-31T07:02:55;56.47;;;33.58;;
39486;SDS011;25173;50.430;18.926;2022-10-31T07:05:58;51.33;;;30.52;;
39486;SDS011;25173;50.430;18.926;2022-10-31T07:08:59;55.72;;;37.72;;
39486;SDS011;25173;50.430;18.926;2022-10-31T07:12:00;57.22;;;34.83;;
39486;SDS011;25173;50.430;18.926;2022-10-31T07:15:03;46.10;;;28.27;;
39486;SDS011;25173;50.430;18.926;2022-10-31T07:18:05;48.28;;;28.63;;
39486;SDS011;25173;50.430;18.926;2022-10-31T07:21:08;40.90;;;26.13;;
39486;SDS011;25173;50.430;18.926;2022-10-31T07:24:09;48.58;;;26.70;;
39486;SDS011;25173;50.430;18.926;2022-10-31T07:27:15;39.22;;;26.08;;
39486;SDS011;25173;50.430;18.926;2022-10-31T07:30:18;39.03;;;25.48;;
39486;SDS011;25173;50.430;18.926;2022-10-31T07:33:22;41.78;;;24.95;;
39486;SDS011;25173;50.430;18.926;2022-10-31T07:36:42;35.55;;;23.08;;
39486;SDS011;25173;50.430;18.926;2022-10-31T07:39:43;34.60;;;22.95;;
39486;SDS011;25173;50.430;18.926;2022-10-31T07:42:47;41.80;;;22.50;;
39486;SDS011;25173;50.430;18.926;2022-10-31T07:46:09;34.03;;;22.30;;
39486;SDS011;25173;50.430;18.926;2022-10-31T07:49:30;33.20;;;19.25;;
39486;SDS011;25173;50.430;18.926;2022-10-31T07:53:03;31.52;;;18.13;;
39486;SDS011;25173;50.430;18.926;2022-10-31T07:56:27;24.80;;;15.38;;
39486;SDS011;25173;50.430;18.926;2022-10-31T07:59:28;26.95;;;16.67;;
39486;SDS011;25173;50.430;18.926;2022-10-31T08:02:29;29.42;;;17.80;;
39486;SDS011;25173;50.430;18.926;2022-10-31T08:05:56;27.40;;;15.80;;
39486;SDS011;25173;50.430;18.926;2022-10-31T08:09:17;26.08;;;15.50;;
39486;SDS011;25173;50.430;18.926;2022-10-31T08:12:20;32.72;;;19.38;;
39486;SDS011;25173;50.430;18.926;2022-10-31T08:15:21;25.90;;;15.48;;
39486;SDS011;25173;50.430;18.926;2022-10-31T08:18:21;25.40;;;13.55;;
39486;SDS011;25173;50.430;18.926;2022-10-31T08:21:24;25.08;;;13.50;;
39486;SDS011;25173;50.430;18.926;2022-10-31T08:24:24;23.90;;;11.68;;
39486;SDS011;25173;50.430;18.926;2022-10-31T08:27:26;25.05;;;12.00;;
39486;SDS011;25173;50.430;18.926;2022-10-31T08:30:29;25.80;;;12.80;;
39486;SDS011;25173;50.430;18.926;2022-10-31T08:33:55;24.33;;;11.05;;
39486;SDS011;25173;50.430;18.926;2022-10-31T08:37:15;28.60;;;15.57;;
39486;SDS011;25173;50.430;18.926;2022-10-31T08:40:21;24.75;;;15.48;;
39486;SDS011;25173;50.430;18.926;2022-10-31T08:43:24;14.48;;;8.40;;
39486;SDS011;25173;50.430;18.926;2022-10-31T08:46:24;17.45;;;9.68;;
39486;SDS011;25173;50.430;18.926;2022-10-31T08:49:25;22.10;;;9.95;;
39486;SDS011;25173;50.430;18.926;2022-10-31T08:52:26;19.60;;;9.13;;
39486;SDS011;25173;50.430;18.926;2022-10-31T08:55:33;18.67;;;10.85;;
39486;SDS011;25173;50.430;18.926;2022-10-31T08:58:37;17.30;;;8.50;;
39486;SDS011;25173;50.430;18.926;2022-10-31T09:01:38;18.40;;;9.95;;
39486;SDS011;25173;50.430;18.926;2022-10-31T09:04:40;16.30;;;8.93;;
39486;SDS011;25173;50.430;18.926;2022-10-31T09:07:43;24.00;;;8.90;;
39486;SDS011;25173;50.430;18.926;2022-10-31T09:10:44;17.50;;;8.70;;
39486;SDS011;25173;50.430;18.926;2022-10-31T09:13:48;25.17;;;9.32;;
39486;SDS011;25173;50.430;18.926;2022-10-31T09:17:21;22.23;;;9.50;;
39486;SDS011;25173;50.430;18.926;2022-10-31T09:20:42;17.63;;;9.07;;
39486;SDS011;25173;50.430;18.926;2022-10-31T09:23:45;24.08;;;9.52;;
39486;SDS011;25173;50.430;18.926;2022-10-31T09:26:45;16.30;;;8.10;;
39486;SDS011;25173;50.430;18.926;2022-10-31T09:30:12;17.80;;;8.15;;
39486;SDS011;25173;50.430;18.926;2022-10-31T09:33:13;12.82;;;7.55;;
39486;SDS011;25173;50.430;18.926;2022-10-31T09:36:19;18.85;;;7.85;;
39486;SDS011;25173;50.430;18.926;2022-10-31T09:39:19;19.60;;;7.38;;
39486;SDS011;25173;50.430;18.926;2022-10-31T09:52:30;19.03;;;7.37;;
39486;SDS011;25173;50.430;18.926;2022-10-31T09:55:41;20.38;;;8.20;;
39486;SDS011;25173;50.430;18.926;2022-10-31T09:58:54;13.68;;;7.35;;
39486;SDS011;25173;50.430;18.926;2022-10-31T10:05:43;16.95;;;7.18;;
39486;SDS011;25173;50.430;18.926;2022-10-31T10:09:01;16.92;;;7.50;;
39486;SDS011;25173;50.430;18.926;2022-10-31T10:32:46;14.60;;;6.15;;
39486;SDS011;25173;50.430;18.926;2022-10-31T10:35:52;20.52;;;6.22;;
39486;SDS011;25173;50.430;18.926;2022-10-31T10:39:00;17.00;;;6.30;;
39486;SDS011;25173;50.430;18.926;2022-10-31T10:42:13;13.93;;;5.15;;
39486;SDS011;25173;50.430;18.926;2022-10-31T10:45:34;15.40;;;6.85;;
39486;SDS011;25173;50.430;18.926;2022-10-31T10:48:58;22.10;;;6.55;;
39486;SDS011;25173;50.430;18.926;2022-10-31T10:58:20;16.45;;;6.57;;
39486;SDS011;25173;50.430;18.926;2022-10-31T11:01:21;16.33;;;6.40;;
39486;SDS011;25173;50.430;18.926;2022-10-31T11:04:30;21.42;;;6.95;;
39486;SDS011;25173;50.430;18.926;2022-10-31T11:07:39;16.83;;;7.75;;
39486;SDS011;25173;50.430;18.926;2022-10-31T11:10:40;23.33;;;7.43;;
39486;SDS011;25173;50.430;18.926;2022-10-31T11:13:41;14.60;;;6.95;;
39486;SDS011;25173;50.430;18.926;2022-10-31T11:16:43;21.52;;;8.20;;
39486;SDS011;25173;50.430;18.926;2022-10-31T11:19:47;20.88;;;7.32;;
39486;SDS011;25173;50.430;18.926;2022-10-31T11:22:48;20.65;;;7.22;;
39486;SDS011;25173;50.430;18.926;2022-10-31T11:25:54;20.42;;;7.63;;
39486;SDS011;25173;50.430;18.926;2022-10-31T11:29:05;18.77;;;7.18;;
39486;SDS011;25173;50.430;18.926;2022-10-31T11:32:24;15.85;;;6.60;;
39486;SDS011;25173;50.430;18.926;2022-10-31T11:35:27;19.98;;;7.32;;
39486;SDS011;25173;50.430;18.926;2022-10-31T11:38:33;15.38;;;6.60;;
39486;SDS011;25173;50.430;18.926;2022-10-31T11:41:39;11.85;;;6.30;;
39486;SDS011;25173;50.430;18.926;2022-10-31T11:44:42;12.48;;;7.00;;
39486;SDS011;25173;50.430;18.926;2022-10-31T11:47:45;18.98;;;8.65;;
39486;SDS011;25173;50.430;18.926;2022-10-31T11:50:50;13.55;;;7.05;;
39486;SDS011;25173;50.430;18.926;2022-10-31T11:53:56;18.00;;;7.97;;
39486;SDS011;25173;50.430;18.926;2022-10-31T11:56:58;14.52;;;7.80;;
39486;SDS011;25173;50.430;18.926;2022-10-31T12:00:00;22.52;;;8.95;;
39486;SDS011;25173;50.430;18.926;2022-10-31T12:09:35;17.02;;;7.40;;
39486;SDS011;25173;50.430;18.926;2022-10-31T12:12:51;29.83;;;8.07;;
39486;SDS011;25173;50.430;18.926;2022-10-31T12:19:32;17.20;;;7.45;;
39486;SDS011;25173;50.430;18.926;2022-10-31T12:23:05;16.92;;;7.22;;
39486;SDS011;25173;50.430;18.926;2022-10-31T12:26:39;15.70;;;7.00;;
39486;SDS011;25173;50.430;18.926;2022-10-31T12:49:03;13.23;;;6.90;;
39486;SDS011;25173;50.430;18.926;2022-10-31T12:59:01;15.27;;;6.93;;
39486;SDS011;25173;50.430;18.926;2022-10-31T13:05:27;19.42;;;7.70;;
39486;SDS011;25173;50.430;18.926;2022-10-31T13:08:51;17.10;;;7.18;;
39486;SDS011;25173;50.430;18.926;2022-10-31T13:12:01;13.48;;;7.15;;
39486;SDS011;25173;50.430;18.926;2022-10-31T13:18:27;14.30;;;7.45;;
39486;SDS011;25173;50.430;18.926;2022-10-31T13:21:38;15.05;;;8.20;;
39486;SDS011;25173;50.430;18.926;2022-10-31T13:24:48;20.52;;;7.38;;
39486;SDS011;25173;50.430;18.926;2022-10-31T13:27:57;16.65;;;7.65;;
39486;SDS011;25173;50.430;18.926;2022-10-31T13:31:01;16.65;;;7.15;;
39486;SDS011;25173;50.430;18.926;2022-10-31T13:34:03;18.45;;;8.50;;
39486;SDS011;25173;50.430;18.926;2022-10-31T13:40:50;12.05;;;6.65;;
39486;SDS011;25173;50.430;18.926;2022-10-31T13:44:22;15.73;;;7.50;;
39486;SDS011;25173;50.430;18.926;2022-10-31T13:47:29;16.27;;;7.55;;
39486;SDS011;25173;50.430;18.926;2022-10-31T13:50:31;15.80;;;8.23;;
39486;SDS011;25173;50.430;18.926;2022-10-31T13:56:57;21.85;;;8.05;;
39486;SDS011;25173;50.430;18.926;2022-10-31T14:00:00;15.48;;;7.85;;
39486;SDS011;25173;50.430;18.926;2022-10-31T14:03:22;14.85;;;7.80;;
39486;SDS011;25173;50.430;18.926;2022-10-31T14:06:35;16.88;;;7.55;;
39486;SDS011;25173;50.430;18.926;2022-10-31T14:09:41;18.50;;;7.65;;
39486;SDS011;25173;50.430;18.926;2022-10-31T14:12:52;15.85;;;8.18;;
39486;SDS011;25173;50.430;18.926;2022-10-31T14:16:04;15.18;;;7.30;;
39486;SDS011;25173;50.430;18.926;2022-10-31T14:19:17;17.52;;;7.05;;
39486;SDS011;25173;50.430;18.926;2022-10-31T14:22:20;15.07;;;7.50;;
39486;SDS011;25173;50.430;18.926;2022-10-31T14:25:29;18.75;;;8.48;;
39486;SDS011;25173;50.430;18.926;2022-10-31T14:28:34;15.23;;;8.15;;
39486;SDS011;25173;50.430;18.926;2022-10-31T14:31:37;18.95;;;7.35;;
39486;SDS011;25173;50.430;18.926;2022-10-31T14:34:58;26.55;;;8.02;;
39486;SDS011;25173;50.430;18.926;2022-10-31T14:38:10;16.58;;;7.60;;
39486;SDS011;25173;50.430;18.926;2022-10-31T14:51:01;19.38;;;8.55;;
39486;SDS011;25173;50.430;18.926;2022-10-31T14:54:10;21.05;;;9.32;;
39486;SDS011;25173;50.430;18.926;2022-10-31T14:57:18;24.63;;;9.45;;
39486;SDS011;25173;50.430;18.926;2022-10-31T15:00:20;17.77;;;9.23;;
39486;SDS011;25173;50.430;18.926;2022-10-31T15:03:24;18.08;;;9.27;;
39486;SDS011;25173;50.430;18.926;2022-10-31T15:06:30;30.17;;;10.95;;
39486;SDS011;25173;50.430;18.926;2022-10-31T15:09:39;19.77;;;8.25;;
39486;SDS011;25173;50.430;18.926;2022-10-31T15:12:43;21.13;;;9.48;;
39486;SDS011;25173;50.430;18.926;2022-10-31T15:15:44;26.65;;;10.27;;
39486;SDS011;25173;50.430;18.926;2022-10-31T15:18:49;21.00;;;9.15;;
39486;SDS011;25173;50.430;18.926;2022-10-31T15:21:53;23.75;;;11.50;;
39486;SDS011;25173;50.430;18.926;2022-10-31T15:24:55;23.40;;;11.20;;
39486;SDS011;25173;50.430;18.926;2022-10-31T15:27:56;37.97;;;15.27;;
39486;SDS011;25173;50.430;18.926;2022-10-31T15:30:58;28.98;;;13.27;;
39486;SDS011;25173;50.430;18.926;2022-10-31T15:34:05;50.05;;;24.15;;
39486;SDS011;25173;50.430;18.926;2022-10-31T15:37:19;52.20;;;22.50;;
39486;SDS011;25173;50.430;18.926;2022-10-31T15:40:23;109.97;;;60.15;;
39486;SDS011;25173;50.430;18.926;2022-10-31T15:43:25;112.45;;;55.97;;
39486;SDS011;25173;50.430;18.926;2022-10-31T15:46:27;200.82;;;132.82;;
39486;SDS011;25173;50.430;18.926;2022-10-31T15:52:39;159.32;;;112.97;;
39486;SDS011;25173;50.430;18.926;2022-10-31T15:55:53;311.45;;;196.43;;
39486;SDS011;25173;50.430;18.926;2022-10-31T15:58:57;103.93;;;53.70;;
39486;SDS011;25173;50.430;18.926;2022-10-31T16:02:00;104.93;;;56.25;;
39486;SDS011;25173;50.430;18.926;2022-10-31T16:05:15;79.63;;;48.13;;
39486;SDS011;25173;50.430;18.926;2022-10-31T16:11:36;114.97;;;66.28;;
39486;SDS011;25173;50.430;18.926;2022-10-31T16:14:38;130.52;;;78.28;;
39486;SDS011;25173;50.430;18.926;2022-10-31T16:17:42;140.65;;;81.55;;
39486;SDS011;25173;50.430;18.926;2022-10-31T16:20:52;190.48;;;111.97;;
39486;SDS011;25173;50.430;18.926;2022-10-31T16:23:57;184.57;;;110.60;;
39486;SDS011;25173;50.430;18.926;2022-10-31T16:27:05;212.85;;;128.40;;
39486;SDS011;25173;50.430;18.926;2022-10-31T16:30:37;258.17;;;152.98;;
39486;SDS011;25173;50.430;18.926;2022-10-31T16:33:39;211.27;;;153.52;;
39486;SDS011;25173;50.430;18.926;2022-10-31T16:36:40;227.95;;;156.30;;
39486;SDS011;25173;50.430;18.926;2022-10-31T16:39:41;296.77;;;213.38;;
39486;SDS011;25173;50.430;18.926;2022-10-31T16:42:42;356.02;;;237.13;;
39486;SDS011;25173;50.430;18.926;2022-10-31T16:45:45;288.60;;;202.10;;
39486;SDS011;25173;50.430;18.926;2022-10-31T16:48:47;301.85;;;197.25;;
39486;SDS011;25173;50.430;18.926;2022-10-31T16:51:48;327.58;;;208.80;;
39486;SDS011;25173;50.430;18.926;2022-10-31T16:54:48;308.17;;;188.40;;
39486;SDS011;25173;50.430;18.926;2022-10-31T16:57:50;316.02;;;206.13;;
39486;SDS011;25173;50.430;18.926;2022-10-31T17:00:52;339.45;;;218.70;;
39486;SDS011;25173;50.430;18.926;2022-10-31T17:03:54;425.05;;;271.90;;
39486;SDS011;25173;50.430;18.926;2022-10-31T17:06:54;439.13;;;272.85;;
39486;SDS011;25173;50.430;18.926;2022-10-31T17:09:55;320.00;;;199.80;;
39486;SDS011;25173;50.430;18.926;2022-10-31T17:12:55;360.70;;;223.25;;
39486;SDS011;25173;50.430;18.926;2022-10-31T17:15:59;414.38;;;231.48;;
39486;SDS011;25173;50.430;18.926;2022-10-31T17:19:03;428.45;;;247.65;;
39486;SDS011;25173;50.430;18.926;2022-10-31T17:22:04;362.45;;;211.60;;
39486;SDS011;25173;50.430;18.926;2022-10-31T17:25:04;418.08;;;198.82;;
39486;SDS011;25173;50.430;18.926;2022-10-31T17:28:06;412.27;;;242.90;;
39486;SDS011;25173;50.430;18.926;2022-10-31T17:31:10;334.40;;;216.15;;
39486;SDS011;25173;50.430;18.926;2022-10-31T17:34:26;320.13;;;191.57;;
39486;SDS011;25173;50.430;18.926;2022-10-31T17:37:26;429.85;;;246.35;;
39486;SDS011;25173;50.430;18.926;2022-10-31T17:40:27;334.80;;;203.32;;
39486;SDS011;25173;50.430;18.926;2022-10-31T17:43:27;339.65;;;209.48;;
39486;SDS011;25173;50.430;18.926;2022-10-31T17:46:28;311.88;;;195.18;;
39486;SDS011;25173;50.430;18.926;2022-10-31T17:49:28;268.25;;;165.68;;
39486;SDS011;25173;50.430;18.926;2022-10-31T17:52:29;315.45;;;186.18;;
39486;SDS011;25173;50.430;18.926;2022-10-31T17:55:30;314.60;;;186.55;;
39486;SDS011;25173;50.430;18.926;2022-10-31T17:58:31;303.60;;;162.75;;
39486;SDS011;25173;50.430;18.926;2022-10-31T18:01:34;281.08;;;158.30;;
39486;SDS011;25173;50.430;18.926;2022-10-31T18:04:35;259.83;;;144.10;;
39486;SDS011;25173;50.430;18.926;2022-10-31T18:07:36;242.20;;;133.73;;
39486;SDS011;25173;50.430;18.926;2022-10-31T18:10:37;243.60;;;134.57;;
39486;SDS011;25173;50.430;18.926;2022-10-31T18:13:38;271.83;;;148.63;;
39486;SDS011;25173;50.430;18.926;2022-10-31T18:16:38;319.50;;;194.00;;
39486;SDS011;25173;50.430;18.926;2022-10-31T18:19:39;319.88;;;203.63;;
39486;SDS011;25173;50.430;18.926;2022-10-31T18:22:39;481.52;;;311.63;;
39486;SDS011;25173;50.430;18.926;2022-10-31T18:25:40;795.22;;;434.85;;
39486;SDS011;25173;50.430;18.926;2022-10-31T18:28:42;648.10;;;359.85;;
39486;SDS011;25173;50.430;18.926;2022-10-31T18:31:43;681.03;;;402.70;;
39486;SDS011;25173;50.430;18.926;2022-10-31T18:34:47;684.35;;;415.05;;
39486;SDS011;25173;50.430;18.926;2022-10-31T18:37:48;638.00;;;379.83;;
39486;SDS011;25173;50.430;18.926;2022-10-31T18:40:49;573.33;;;341.00;;
39486;SDS011;25173;50.430;18.926;2022-10-31T18:43:50;591.75;;;353.65;;
39486;SDS011;25173;50.430;18.926;2022-10-31T18:46:53;574.90;;;324.67;;
39486;SDS011;25173;50.430;18.926;2022-10-31T18:49:53;615.78;;;363.88;;
39486;SDS011;25173;50.430;18.926;2022-10-31T18:52:54;573.08;;;341.00;;
39486;SDS011;25173;50.430;18.926;2022-10-31T18:55:55;551.20;;;317.90;;
39486;SDS011;25173;50.430;18.926;2022-10-31T18:59:02;533.28;;;309.20;;
39486;SDS011;25173;50.430;18.926;2022-10-31T19:02:02;460.05;;;269.65;;
39486;SDS011;25173;50.430;18.926;2022-10-31T19:05:03;454.45;;;260.15;;
39486;SDS011;25173;50.430;18.926;2022-10-31T19:08:04;478.77;;;281.38;;
39486;SDS011;25173;50.430;18.926;2022-10-31T19:11:05;296.20;;;176.00;;
39486;SDS011;25173;50.430;18.926;2022-10-31T19:14:08;394.58;;;228.48;;
39486;SDS011;25173;50.430;18.926;2022-10-31T19:17:10;385.33;;;232.68;;
39486;SDS011;25173;50.430;18.926;2022-10-31T19:20:11;437.00;;;271.70;;
39486;SDS011;25173;50.430;18.926;2022-10-31T19:23:13;445.60;;;266.00;;
39486;SDS011;25173;50.430;18.926;2022-10-31T19:26:14;383.05;;;226.90;;
39486;SDS011;25173;50.430;18.926;2022-10-31T19:29:15;483.25;;;277.35;;
39486;SDS011;25173;50.430;18.926;2022-10-31T19:32:16;500.42;;;288.33;;
39486;SDS011;25173;50.430;18.926;2022-10-31T19:35:17;427.02;;;245.88;;
39486;SDS011;25173;50.430;18.926;2022-10-31T19:38:18;397.77;;;218.68;;
39486;SDS011;25173;50.430;18.926;2022-10-31T19:41:20;381.23;;;200.68;;
39486;SDS011;25173;50.430;18.926;2022-10-31T19:44:25;385.98;;;209.55;;
39486;SDS011;25173;50.430;18.926;2022-10-31T19:47:26;396.83;;;213.57;;
39486;SDS011;25173;50.430;18.926;2022-10-31T19:50:27;553.40;;;300.67;;
39486;SDS011;25173;50.430;18.926;2022-10-31T19:53:29;611.55;;;346.88;;